Time;durP1;ratioP1;P1;durP2;ratioP2;P2;SDS_P1;SDS_P2;PMS_P1;PMS_P2;Temp;Humidity;BMP_temperature;BMP_pressure;BME280_temperature;BME280_humidity;BME280_pressure;Samples;Min_cycle;Max_cycle;Signal;HPM_P1;HPM_P2
2023/10/21 10:51:45;;;;;;;4.88;2.10;;;;;;;20.52;nan;99395.97;2129095;27;20160;-72
2023/10/21 10:52:47;;;;;;;7.88;2.35;;;;;;;20.53;nan;99402.22;2104242;28;20033;-69
2023/10/21 10:53:56;;;;;;;13.70;3.08;;;;;;;20.52;nan;99406.91;2103182;27;20994;-69
2023/10/21 10:54:59;;;;;;;7.45;2.22;;;;;;;20.52;nan;99398.69;2120480;27;20245;-69
2023/10/21 10:56:01;;;;;;;9.25;2.50;;;;;;;20.52;nan;99398.69;2121322;27;20874;-69
2023/10/21 10:57:03;;;;;;;6.72;2.22;;;;;;;20.52;nan;99395.97;2129523;27;20032;-69
2023/10/21 10:58:07;;;;;;;5.72;2.30;;;;;;;20.54;nan;99393.63;2124272;27;20054;-70
2023/10/21 10:59:18;;;;;;;8.30;2.33;;;;;;;20.55;nan;99395.22;2129170;27;20031;-72
2023/10/21 11:00:20;;;;;;;11.20;2.20;;;;;;;20.75;nan;99395.81;2120734;27;20038;-69
2023/10/21 11:01:26;;;;;;;8.77;1.92;;;;;;;20.82;nan;99392.38;2120292;27;20059;-69
2023/10/21 11:02:28;;;;;;;6.40;2.30;;;;;;;20.83;nan;99399.38;2105755;28;20110;-77
2023/10/21 11:03:33;;;;;;;7.15;2.22;;;;;;;20.85;nan;99391.63;2108675;27;21427;-70
2023/10/21 11:04:35;;;;;;;15.80;2.63;;;;;;;20.85;nan;99397.06;2121153;27;20024;-78
2023/10/21 11:05:37;;;;;;;6.65;2.10;;;;;;;20.86;nan;99397.84;2089903;27;20036;-72
2023/10/21 11:07:11;;;;;;;6.03;2.25;;;;;;;20.85;67.21;99401.75;2026169;27;3553990;-66
2023/10/21 11:08:13;;;;;;;5.18;2.00;;;;;;;20.84;67.51;99403.72;2138563;27;20027;-67
2023/10/21 11:09:19;;;;;;;6.72;2.70;;;;;;;20.85;67.85;99397.06;2129741;27;20748;-72
2023/10/21 11:10:22;;;;;;;10.65;2.50;;;;;;;20.85;68.15;99402.53;2129852;27;20850;-66
2023/10/21 11:11:23;;;;;;;4.68;2.15;;;;;;;20.85;68.38;99401.75;2122372;27;20130;-69
2023/10/21 11:12:27;;;;;;;4.47;2.13;;;;;;;20.86;68.61;99397.84;2120386;27;20135;-65
2023/10/21 11:13:28;;;;;;;5.90;2.42;;;;;;;20.88;69.20;99396.31;2121611;27;20024;-67
2023/10/21 11:14:30;;;;;;;5.95;2.20;;;;;;;20.88;69.47;99396.31;2124896;27;20930;-66
2023/10/21 11:15:32;;;;;;;8.18;2.50;;;;;;;20.90;69.60;99395.94;2125399;27;20031;-66
2023/10/21 11:16:34;;;;;;;9.02;2.20;;;;;;;20.91;70.03;99401.03;2131533;27;20781;-69
2023/10/21 11:17:36;;;;;;;4.88;2.10;;;;;;;20.94;70.00;99394.03;2125340;27;20938;-75
2023/10/21 11:18:38;;;;;;;7.05;2.30;;;;;;;20.96;70.43;99397.16;2123881;27;22198;-72
2023/10/21 11:19:40;;;;;;;8.10;2.65;;;;;;;20.98;70.43;99390.16;2111858;27;20051;-72
2023/10/21 11:20:49;;;;;;;11.43;3.97;;;;;;;21.01;70.55;99383.94;2110740;27;20064;-72
2023/10/21 11:21:52;;;;;;;11.60;4.22;;;;;;;21.04;70.85;99382.41;2118122;27;20024;-71
2023/10/21 11:22:54;;;;;;;14.63;5.88;;;;;;;21.08;71.11;99387.91;2112698;27;20030;-71
2023/10/21 11:23:55;;;;;;;18.58;6.20;;;;;;;21.10;71.12;99382.84;2120224;27;20118;-72
2023/10/21 11:24:57;;;;;;;11.55;4.82;;;;;;;20.74;55.20;99386.06;2110365;27;20067;-65
2023/10/21 11:26:00;;;;;;;6.20;4.07;;;;;;;19.75;51.20;99380.16;2112658;27;20138;-64
2023/10/21 11:27:06;;;;;;;11.52;4.63;;;;;;;18.53;51.56;99380.84;2114140;27;20040;-65
2023/10/21 11:28:08;;;;;;;10.52;4.50;;;;;;;18.19;52.22;99386.06;2129183;27;20027;-65
2023/10/21 11:29:10;;;;;;;14.68;5.53;;;;;;;17.79;53.80;99376.28;2128460;27;20035;-64
2023/10/21 11:30:12;;;;;;;16.90;4.90;;;;;;;17.95;55.93;99381.66;2122178;27;20024;-64
2023/10/21 11:31:18;;;;;;;22.13;7.25;;;;;;;18.12;59.18;99385.88;2111490;27;20184;-64
2023/10/21 11:32:33;;;;;;;26.55;8.90;;;;;;;18.26;63.21;99388.13;2113846;27;20035;-64
2023/10/21 11:33:35;;;;;;;25.55;8.00;;;;;;;18.42;65.26;99391.53;2112634;28;20035;-63
2023/10/21 11:34:37;;;;;;;22.88;7.15;;;;;;;18.52;66.52;99395.63;2112612;27;20024;-64
2023/10/21 11:35:44;;;;;;;21.10;7.25;;;;;;;18.64;67.31;99395.47;2121116;27;20114;-64
2023/10/21 11:36:48;;;;;;;26.17;7.68;;;;;;;18.74;67.97;99391.38;2109940;27;20831;-64
2023/10/21 11:37:55;;;;;;;31.50;9.95;;;;;;;18.82;68.54;99389.56;2113161;27;20028;-66
2023/10/21 11:38:57;;;;;;;58.00;22.67;;;;;;;18.93;68.99;99388.63;2112971;27;20788;-64
2023/10/21 11:39:59;;;;;;;80.00;33.70;;;;;;;19.02;69.48;99382.16;2112401;27;20155;-65
2023/10/21 11:41:01;;;;;;;90.55;42.03;;;;;;;19.10;69.91;99387.31;2112293;27;20032;-64
2023/10/21 11:42:03;;;;;;;88.03;43.45;;;;;;;19.19;70.19;99395.25;2102753;27;20032;-65
2023/10/21 11:43:07;;;;;;;115.18;55.25;;;;;;;19.27;70.47;99394.25;2103499;27;20025;-64
2023/10/21 11:44:10;;;;;;;119.57;60.13;;;;;;;19.36;70.90;99394.00;2102910;28;20113;-63
2023/10/21 11:45:13;;;;;;;120.53;63.95;;;;;;;19.43;71.15;99394.88;2103860;27;20114;-64
2023/10/21 11:46:17;;;;;;;132.70;71.45;;;;;;;19.52;71.57;99402.03;2103228;27;20574;-63
2023/10/21 11:47:18;;;;;;;153.85;83.75;;;;;;;19.58;71.83;99404.06;2112655;27;20110;-63
2023/10/21 11:48:20;;;;;;;222.73;125.82;;;;;;;19.66;72.12;99405.75;2120442;27;20132;-63
2023/10/21 11:49:23;;;;;;;224.60;128.45;;;;;;;19.73;72.62;99401.56;2119615;27;20042;-65
2023/10/21 11:50:25;;;;;;;176.95;102.65;;;;;;;19.76;71.20;99411.72;2121358;27;20163;-66
2023/10/21 11:51:29;;;;;;;156.55;93.20;;;;;;;19.77;69.76;99410.59;2136312;27;20063;-65
2023/10/21 11:52:32;;;;;;;138.15;91.05;;;;;;;19.74;67.81;99411.34;2119800;27;20109;-65
2023/10/21 11:53:34;;;;;;;157.88;105.15;;;;;;;19.71;66.42;99412.06;2115923;27;20852;-65
2023/10/21 11:54:46;;;;;;;127.65;87.88;;;;;;;19.67;64.34;99418.25;2129440;27;20035;-65
2023/10/21 11:57:32;;;;;;;92.72;59.58;;;;;;;19.56;61.17;99427.38;2121506;27;20106;-66
2023/10/21 11:59:53;;;;;;;81.25;53.03;;;;;;;19.47;60.11;99424.13;2138132;27;20019;-67
2023/10/21 12:11:08;;;;;;;407.58;262.50;;;;;;;18.85;60.93;99432.41;2129883;27;20043;-66
2023/10/21 12:13:25;;;;;;;881.63;600.55;;;;;;;19.04;64.55;99421.50;2118709;27;20146;-65
2023/10/21 12:40:31;;;;;;;215.55;116.50;;;;;;;19.01;57.16;99443.19;2130244;27;20035;-63
2023/10/21 12:41:37;;;;;;;217.00;116.40;;;;;;;19.08;58.00;99441.41;2105981;28;20037;-63
2023/10/21 12:42:45;;;;;;;208.30;114.07;;;;;;;19.12;58.04;99442.25;2090881;28;20065;-64
2023/10/21 12:43:50;;;;;;;229.20;117.38;;;;;;;19.18;58.39;99440.81;2104914;27;20059;-64
2023/10/21 12:44:57;;;;;;;244.75;119.32;;;;;;;19.24;58.71;99437.78;2122940;27;20908;-63
2023/10/21 12:46:12;;;;;;;221.43;112.53;;;;;;;19.30;58.63;99437.13;2120651;27;20905;-63
2023/10/21 12:47:16;;;;;;;224.38;118.72;;;;;;;19.35;58.87;99436.00;2094443;28;20870;-63
2023/10/21 12:48:18;;;;;;;207.18;107.38;;;;;;;19.41;58.63;99432.59;2106366;28;20130;-63
2023/10/21 12:49:20;;;;;;;213.10;112.25;;;;;;;19.45;59.11;99441.66;2107794;27;20200;-63
2023/10/21 12:50:21;;;;;;;180.98;99.43;;;;;;;19.51;58.88;99444.03;2104343;28;20064;-64
2023/10/21 12:51:26;;;;;;;209.82;108.90;;;;;;;19.55;59.45;99445.69;2114628;27;20094;-65
2023/10/21 12:52:29;;;;;;;198.07;104.40;;;;;;;19.60;59.35;99450.81;2122346;27;20113;-65
2023/10/21 12:53:30;;;;;;;215.18;110.00;;;;;;;19.64;59.43;99451.72;2114476;28;20029;-65
2023/10/21 12:54:32;;;;;;;213.63;110.30;;;;;;;19.70;59.80;99454.09;2105531;27;20037;-66
2023/10/21 12:55:35;;;;;;;197.63;104.75;;;;;;;19.74;60.07;99460.41;2106106;28;20028;-65
2023/10/21 12:56:38;;;;;;;190.20;99.13;;;;;;;19.79;59.70;99458.13;2089683;28;20128;-65
2023/10/21 12:57:40;;;;;;;191.15;101.20;;;;;;;19.84;59.98;99462.50;2106642;27;20889;-65
2023/10/21 12:58:42;;;;;;;185.40;97.72;;;;;;;19.88;59.74;99464.13;2114373;27;20154;-65
2023/10/21 12:59:44;;;;;;;189.60;101.30;;;;;;;19.93;60.02;99465.75;2105624;28;20927;-65
2023/10/21 13:00:47;;;;;;;172.40;90.38;;;;;;;19.97;59.92;99469.31;2106481;28;20044;-65
2023/10/21 13:01:48;;;;;;;158.15;88.15;;;;;;;20.02;59.80;99470.94;2106652;28;20040;-65
2023/10/21 13:02:50;;;;;;;166.70;89.95;;;;;;;20.04;59.77;99468.63;2106389;27;20029;-65
2023/10/21 13:03:52;;;;;;;159.25;86.50;;;;;;;20.06;58.93;99472.56;2106859;28;20149;-65
2023/10/21 13:04:54;;;;;;;163.88;84.57;;;;;;;20.10;59.00;99478.84;2098185;28;20032;-66
2023/10/21 13:05:56;;;;;;;161.27;84.57;;;;;;;20.11;59.01;99469.53;2098879;28;20776;-65
2023/10/21 13:07:04;;;;;;;141.00;78.55;;;;;;;20.15;58.57;99475.03;2107188;27;20044;-66
2023/10/21 13:08:09;;;;;;;145.10;75.85;;;;;;;20.18;58.43;99481.72;2116155;27;20933;-66
2023/10/21 13:09:24;;;;;;;134.85;76.57;;;;;;;20.21;58.50;99479.03;2123736;27;20036;-66
2023/10/21 13:10:27;;;;;;;142.90;74.80;;;;;;;20.23;58.22;99478.63;2114364;28;20071;-65
2023/10/21 13:11:29;;;;;;;139.23;70.95;;;;;;;20.25;57.83;99479.06;2099400;28;20032;-66
2023/10/21 13:12:31;;;;;;;131.93;70.60;;;;;;;20.25;57.80;99476.34;2115678;27;20016;-66
2023/10/21 13:13:37;;;;;;;126.82;67.07;;;;;;;20.27;57.96;99482.19;2106496;28;20110;-66
2023/10/21 13:14:39;;;;;;;127.55;66.90;;;;;;;20.29;57.95;99471.69;2108146;27;20233;-66
2023/10/21 13:15:44;;;;;;;117.50;64.25;;;;;;;20.28;57.89;99461.94;2106228;28;20044;-66
2023/10/21 13:16:45;;;;;;;125.90;64.85;;;;;;;20.33;57.63;99472.53;2104506;27;20079;-66
2023/10/21 13:17:48;;;;;;;115.60;63.17;;;;;;;20.35;58.09;99464.75;2094415;28;20025;-66
2023/10/21 13:18:51;;;;;;;117.90;63.80;;;;;;;20.36;58.60;99463.59;2098339;28;20040;-66
2023/10/21 13:19:52;;;;;;;117.25;64.38;;;;;;;20.38;58.86;99467.53;2102226;27;20032;-66
2023/10/21 13:20:54;;;;;;;114.95;59.10;;;;;;;20.40;58.35;99469.09;2107472;27;20106;-66
2023/10/21 13:21:56;;;;;;;103.95;54.55;;;;;;;20.43;57.95;99468.34;2122132;27;20028;-66
2023/10/21 13:22:57;;;;;;;108.25;55.47;;;;;;;20.45;58.05;99468.78;2097864;28;20071;-66
2023/10/21 13:24:04;;;;;;;115.72;58.78;;;;;;;20.46;58.36;99473.88;2106066;27;20024;-66
2023/10/21 13:25:09;;;;;;;;;;;;;;;20.49;58.16;99467.69;2123878;27;20177;-66
2023/10/21 13:26:11;;;;;;;106.28;52.65;;;;;;;20.50;57.96;99471.97;2123243;27;19919;-65
2023/10/21 13:27:16;;;;;;;98.63;52.33;;;;;;;20.52;58.18;99471.63;2106053;28;20028;-66
2023/10/21 13:28:18;;;;;;;92.90;49.38;;;;;;;20.53;57.83;99474.00;2106824;27;20179;-66
2023/10/21 13:29:21;;;;;;;90.60;49.75;;;;;;;20.55;57.58;99477.16;2122872;27;20770;-66
2023/10/21 13:30:23;;;;;;;83.38;44.53;;;;;;;20.55;57.40;99471.69;2113600;28;20032;-66
2023/10/21 13:31:26;;;;;;;80.82;44.42;;;;;;;20.55;57.30;99477.16;2107150;27;20145;-66
2023/10/21 13:32:27;;;;;;;85.15;45.70;;;;;;;20.55;57.46;99474.41;2098195;28;20146;-66
2023/10/21 13:33:31;;;;;;;86.13;47.10;;;;;;;20.57;57.64;99461.16;2105469;27;20213;-66
2023/10/21 13:34:36;;;;;;;82.97;44.20;;;;;;;20.56;57.31;99459.59;2123554;27;20030;-66
2023/10/21 13:35:40;;;;;;;84.38;43.97;;;;;;;20.58;57.52;99470.91;2123887;27;20100;-65
2023/10/21 13:36:42;;;;;;;72.68;41.60;;;;;;;20.60;57.18;99473.28;2106650;28;20036;-66
2023/10/21 13:37:45;;;;;;;71.72;38.75;;;;;;;20.59;56.82;99461.59;2097432;28;20025;-66
2023/10/21 13:38:47;;;;;;;74.60;39.72;;;;;;;20.61;56.99;99463.94;2106847;28;20055;-66
2023/10/21 13:39:49;;;;;;;70.95;38.70;;;;;;;20.59;56.75;99469.78;2120803;27;20805;-65
2023/10/21 13:40:51;;;;;;;68.72;36.50;;;;;;;20.59;56.57;99475.25;2113574;28;20055;-65
2023/10/21 13:41:53;;;;;;;73.93;37.42;;;;;;;20.60;56.82;99479.53;2107231;27;20016;-65
2023/10/21 13:42:55;;;;;;;70.80;36.55;;;;;;;20.61;56.92;99474.84;2115150;27;20058;-66
2023/10/21 13:43:59;;;;;;;63.00;35.80;;;;;;;20.62;56.82;99475.63;2115022;27;20109;-65
2023/10/21 13:45:05;;;;;;;65.40;35.65;;;;;;;20.64;57.13;99486.97;2121927;27;20027;-66
2023/10/21 13:46:09;;;;;;;60.78;34.42;;;;;;;20.64;57.29;99485.03;2124339;27;20115;-66
2023/10/21 13:47:14;;;;;;;64.50;35.55;;;;;;;20.65;57.20;99480.34;2117285;27;20028;-65
2023/10/21 13:48:19;;;;;;;60.90;33.55;;;;;;;20.67;57.42;99483.50;2115910;27;20087;-65
2023/10/21 13:49:21;;;;;;;57.88;30.15;;;;;;;20.67;57.26;99470.63;2122893;27;20026;-65
2023/10/21 13:50:25;;;;;;;58.67;30.00;;;;;;;20.66;56.55;99471.81;2124117;27;20035;-65
2023/10/21 13:51:30;;;;;;;56.65;29.48;;;;;;;20.68;56.57;99476.88;2123551;27;20032;-65
2023/10/21 13:52:31;;;;;;;54.08;30.05;;;;;;;20.70;56.89;99488.22;2105311;28;20068;-66
2023/10/21 13:53:33;;;;;;;56.85;29.67;;;;;;;20.70;57.00;99489.00;2098656;28;20745;-65
2023/10/21 13:54:36;;;;;;;52.85;26.85;;;;;;;20.69;56.60;99484.72;2106940;27;20932;-66
2023/10/21 13:55:42;;;;;;;47.70;26.90;;;;;;;20.71;56.80;99487.88;2123820;27;20778;-66
2023/10/21 13:56:44;;;;;;;46.28;26.95;;;;;;;20.73;56.90;99482.00;2114573;27;20139;-67
2023/10/21 13:57:48;;;;;;;50.05;26.60;;;;;;;20.74;56.69;99489.03;2098392;28;20717;-66
2023/10/21 13:58:50;;;;;;;46.58;25.77;;;;;;;20.74;56.61;99486.31;2098454;28;21188;-66
2023/10/21 13:59:52;;;;;;;48.35;24.17;;;;;;;20.74;56.00;99489.03;2114764;27;20051;-66
2023/10/21 14:00:58;;;;;;;47.67;24.48;;;;;;;20.74;56.12;99489.03;2098329;28;20743;-67
2023/10/21 14:02:00;;;;;;;40.42;23.92;;;;;;;20.73;56.19;99493.72;2100964;27;20219;-66
2023/10/21 14:03:12;;;;;;;43.90;23.95;;;;;;;20.74;56.51;99489.03;2121915;27;20123;-67
2023/10/21 14:04:19;;;;;;;40.33;23.05;;;;;;;20.75;56.50;99494.16;2124065;27;20115;-66
2023/10/21 14:05:24;;;;;;;40.20;22.88;;;;;;;20.76;56.20;99503.13;2123792;27;21328;-66
2023/10/21 14:06:26;;;;;;;40.40;21.42;;;;;;;20.75;56.06;99507.03;2122977;27;20863;-66
2023/10/21 14:07:27;;;;;;;42.00;22.10;;;;;;;20.76;56.16;99501.19;2113389;28;20768;-67
2023/10/21 14:08:29;;;;;;;40.03;20.23;;;;;;;20.77;56.05;99505.47;2107151;28;20056;-66
2023/10/21 14:09:31;;;;;;;40.28;20.48;;;;;;;20.77;56.36;99504.69;2098291;28;20024;-66
2023/10/21 14:10:38;;;;;;;36.90;19.98;;;;;;;20.79;56.44;99505.13;2103471;27;20886;-66
2023/10/21 14:11:40;;;;;;;33.78;18.50;;;;;;;20.78;56.11;99507.06;2107228;28;20024;-66
2023/10/21 14:12:43;;;;;;;35.75;19.65;;;;;;;20.79;55.96;99499.66;2115653;27;20118;-66
2023/10/21 14:13:47;;;;;;;33.05;18.23;;;;;;;20.79;55.68;99505.13;2123749;27;20042;-67
2023/10/21 14:14:48;;;;;;;34.78;18.25;;;;;;;20.79;55.88;99499.66;2098154;28;20072;-67
2023/10/21 14:15:54;;;;;;;32.05;17.25;;;;;;;20.79;55.76;99508.63;2098675;27;20025;-66
2023/10/21 14:16:56;;;;;;;29.65;16.60;;;;;;;20.80;56.05;99501.22;2124083;27;20094;-67
2023/10/21 14:17:58;;;;;;;30.80;17.73;;;;;;;20.79;56.00;99502.38;2111690;27;20019;-66
2023/10/21 14:19:00;;;;;;;32.15;17.15;;;;;;;20.80;56.01;99498.47;2115574;27;20082;-67
2023/10/21 14:20:04;;;;;;;28.50;15.38;;;;;;;20.80;55.82;99512.91;2115448;27;20102;-67
2023/10/21 14:21:07;;;;;;;28.73;15.90;;;;;;;20.80;55.75;99506.69;2123866;27;20023;-67
2023/10/21 14:22:09;;;;;;;27.40;14.70;;;;;;;20.80;55.82;99507.47;2115165;27;20024;-67
2023/10/21 14:23:14;;;;;;;31.15;15.05;;;;;;;20.80;56.01;99515.66;2122973;27;20024;-67
2023/10/21 14:24:17;;;;;;;26.48;14.02;;;;;;;20.82;56.15;99518.03;2123292;27;20146;-67
2023/10/21 14:25:20;;;;;;;36.03;15.00;;;;;;;20.82;56.57;99518.03;2106986;28;20130;-67
2023/10/21 14:26:23;;;;;;;29.50;14.10;;;;;;;20.81;56.79;99508.28;2097945;28;20037;-66
2023/10/21 14:27:25;;;;;;;28.48;13.45;;;;;;;20.84;57.00;99510.25;2099213;28;20858;-67
2023/10/21 14:28:27;;;;;;;25.42;13.73;;;;;;;20.85;57.25;99508.31;2097925;28;20029;-66
2023/10/21 14:29:29;;;;;;;27.23;12.65;;;;;;;20.86;57.47;99513.38;2099039;27;20091;-67
2023/10/21 14:30:35;;;;;;;27.33;12.90;;;;;;;20.82;57.80;99507.09;2107014;28;20028;-66
2023/10/21 14:31:37;;;;;;;25.52;12.07;;;;;;;20.87;58.01;99523.16;2106609;28;20159;-67
2023/10/21 14:32:41;;;;;;;30.20;12.27;;;;;;;20.87;58.08;99520.44;2103149;27;20790;-66
2023/10/21 14:33:44;;;;;;;23.70;11.52;;;;;;;20.87;58.27;99522.34;2107035;28;20037;-67
2023/10/21 14:34:53;;;;;;;23.20;11.35;;;;;;;20.87;58.23;99522.34;2105892;27;20851;-67
2023/10/21 14:36:00;;;;;;;23.27;11.90;;;;;;;20.87;58.19;99514.16;2115962;27;20036;-67
2023/10/21 14:37:03;;;;;;;22.95;11.25;;;;;;;20.87;58.46;99525.09;2106329;28;20823;-66
2023/10/21 14:38:06;;;;;;;24.52;10.88;;;;;;;20.87;58.60;99520.44;2098465;27;20025;-66
2023/10/21 14:39:07;;;;;;;25.60;11.27;;;;;;;20.88;58.68;99527.47;2106666;28;20871;-66
2023/10/21 14:40:12;;;;;;;20.88;10.60;;;;;;;20.89;59.21;99517.31;2108437;27;20149;-66
2023/10/21 14:41:15;;;;;;;22.20;11.07;;;;;;;20.87;59.12;99525.91;2114036;27;20016;-66
2023/10/21 14:42:18;;;;;;;20.17;10.15;;;;;;;20.90;59.38;99518.88;2107512;27;20052;-66
2023/10/21 14:43:20;;;;;;;22.77;10.77;;;;;;;20.91;59.40;99524.00;2114834;28;20109;-66
2023/10/21 14:44:22;;;;;;;24.65;10.35;;;;;;;20.92;59.25;99520.09;2109732;27;20043;-67
2023/10/21 14:45:24;;;;;;;21.90;10.02;;;;;;;20.92;59.29;99511.88;2123883;27;20031;-67
2023/10/21 14:46:26;;;;;;;22.42;11.18;;;;;;;20.92;59.48;99513.84;2124149;27;20625;-66
2023/10/21 14:47:30;;;;;;;19.00;10.30;;;;;;;20.92;59.30;99506.44;2106690;28;20024;-66
2023/10/21 14:48:33;;;;;;;16.25;9.85;;;;;;;20.94;59.40;99504.13;2087626;27;20049;-66
2023/10/21 14:49:34;;;;;;;19.13;9.82;;;;;;;20.94;59.38;99504.13;2107733;27;20039;-66
2023/10/21 14:50:41;;;;;;;19.70;10.25;;;;;;;20.94;59.54;99504.13;2110481;27;20828;-66
2023/10/21 14:51:43;;;;;;;16.20;8.98;;;;;;;20.95;59.30;99500.22;2115788;27;20035;-66
2023/10/21 14:52:45;;;;;;;18.38;9.70;;;;;;;20.95;59.50;99502.94;2105330;28;20051;-66
2023/10/21 14:53:47;;;;;;;17.70;9.40;;;;;;;20.96;59.54;99501.78;2087926;28;20069;-69
2023/10/21 14:54:48;;;;;;;17.73;9.10;;;;;;;20.97;59.38;99508.84;2098451;27;20155;-66
2023/10/21 14:55:50;;;;;;;15.82;8.60;;;;;;;20.98;59.38;99504.94;2097981;28;20117;-67
2023/10/21 14:56:55;;;;;;;17.00;9.27;;;;;;;20.99;59.38;99505.72;2101498;28;20788;-67
2023/10/21 14:57:57;;;;;;;21.63;8.98;;;;;;;21.00;59.10;99501.84;2114715;28;20036;-67
2023/10/21 14:59:00;;;;;;;17.13;8.48;;;;;;;21.00;59.33;99510.81;2123174;27;20813;-67
2023/10/21 15:00:04;;;;;;;17.55;9.27;;;;;;;21.01;59.21;99503.41;2123043;27;20167;-67
2023/10/21 15:01:06;;;;;;;21.90;9.10;;;;;;;21.01;59.40;99509.66;2115526;27;20071;-67
2023/10/21 15:02:08;;;;;;;16.25;7.85;;;;;;;21.01;58.56;99508.88;2105769;28;20149;-66
2023/10/21 15:03:15;;;;;;;14.73;8.32;;;;;;;20.83;52.81;99508.66;2089950;28;20037;-67
2023/10/21 15:04:19;;;;;;;14.75;7.55;;;;;;;20.80;56.43;99512.13;2086369;28;20026;-66
2023/10/21 15:05:27;;;;;;;20.95;7.60;;;;;;;20.82;57.96;99513.34;2097928;28;20028;-66
2023/10/21 15:06:29;;;;;;;13.55;8.25;;;;;;;20.85;58.75;99517.28;2106455;27;20033;-64
2023/10/21 15:07:33;;;;;;;17.10;7.93;;;;;;;20.87;59.05;99520.44;2105185;28;20275;-64
2023/10/21 15:08:36;;;;;;;14.52;7.32;;;;;;;20.89;59.16;99525.50;2105052;27;20036;-66
2023/10/21 15:09:38;;;;;;;14.43;7.72;;;;;;;20.90;59.42;99521.63;2113685;27;20044;-66
2023/10/21 15:10:42;;;;;;;15.48;7.18;;;;;;;20.91;59.57;99526.72;2121575;27;20026;-66
2023/10/21 15:11:46;;;;;;;14.18;7.50;;;;;;;20.93;59.76;99527.16;2121989;27;20035;-66
2023/10/21 15:12:53;;;;;;;19.50;7.72;;;;;;;20.96;59.85;99539.25;2096391;28;20991;-66
2023/10/21 15:13:57;;;;;;;11.57;6.72;;;;;;;20.98;60.05;99536.94;2106707;27;20024;-66
2023/10/21 15:14:59;;;;;;;12.95;6.57;;;;;;;21.00;59.99;99543.63;2121709;27;20024;-65
2023/10/21 15:16:01;;;;;;;10.90;6.68;;;;;;;21.01;60.06;99541.66;2121832;27;20028;-66
2023/10/21 15:17:03;;;;;;;13.02;6.63;;;;;;;21.01;59.79;99536.97;2105105;28;20033;-65
2023/10/21 15:18:08;;;;;;;12.18;6.90;;;;;;;21.03;59.94;99540.13;2093616;27;20149;-66
2023/10/21 15:19:12;;;;;;;12.63;6.38;;;;;;;21.07;59.83;99542.91;2105155;28;20139;-66
2023/10/21 15:20:18;;;;;;;14.52;6.75;;;;;;;21.09;59.68;99553.44;2103736;27;20046;-67
2023/10/21 15:21:20;;;;;;;13.85;6.50;;;;;;;21.10;59.82;99549.56;2113094;27;20024;-66
2023/10/21 15:22:21;;;;;;;12.88;6.47;;;;;;;21.11;59.63;99551.13;2096529;28;20040;-66
2023/10/21 15:23:28;;;;;;;10.85;6.32;;;;;;;21.13;59.72;99554.28;2103501;27;20075;-65
2023/10/21 15:24:30;;;;;;;11.48;6.57;;;;;;;21.17;59.70;99560.56;2121225;27;20020;-66
2023/10/21 15:25:33;;;;;;;10.00;6.43;;;;;;;21.17;59.69;99561.34;2113714;27;20043;-66
2023/10/21 15:26:35;;;;;;;9.48;6.05;;;;;;;21.18;59.63;99556.66;2104667;28;20099;-65
2023/10/21 15:27:44;;;;;;;13.50;6.03;;;;;;;21.21;59.44;99567.66;2105842;27;20025;-66
2023/10/21 15:28:45;;;;;;;11.07;6.05;;;;;;;21.24;59.62;99571.56;2105244;28;20958;-65
2023/10/21 15:29:47;;;;;;;10.30;5.70;;;;;;;21.23;59.50;99570.81;2112995;27;20036;-66
2023/10/21 15:30:53;;;;;;;10.93;5.97;;;;;;;21.09;58.16;99553.44;2113142;28;20040;-66
2023/10/21 15:31:57;;;;;;;10.77;6.47;;;;;;;21.05;56.02;99575.28;2089849;28;20041;-66
2023/10/21 15:32:59;;;;;;;10.82;5.97;;;;;;;21.08;57.21;99579.22;2097317;27;20027;-64
2023/10/21 15:34:01;;;;;;;16.00;6.53;;;;;;;21.10;58.30;99571.44;2101812;28;20147;-66
2023/10/21 15:35:06;;;;;;;12.43;5.80;;;;;;;21.13;58.84;99581.63;2105122;28;20036;-67
2023/10/21 15:36:08;;;;;;;10.60;5.95;;;;;;;21.16;58.92;99584.41;2113074;27;20024;-64
2023/10/21 15:37:12;;;;;;;9.77;5.63;;;;;;;21.18;59.13;99586.75;2112410;27;20032;-65
2023/10/21 15:38:18;;;;;;;11.23;6.28;;;;;;;21.22;59.31;99590.31;2120696;27;21445;-65
2023/10/21 15:39:20;;;;;;;9.50;5.57;;;;;;;21.25;59.21;99589.56;2113103;28;20020;-64
2023/10/21 15:40:27;;;;;;;7.95;5.45;;;;;;;21.27;59.38;99590.75;2097410;28;20115;-65
2023/10/21 15:41:29;;;;;;;9.57;5.75;;;;;;;21.30;59.14;99591.97;2089030;28;20080;-65
2023/10/21 15:42:30;;;;;;;10.32;5.82;;;;;;;21.32;59.34;99589.66;2105169;27;20056;-66
2023/10/21 15:43:32;;;;;;;13.13;5.82;;;;;;;21.35;59.33;99599.88;2120864;27;20066;-65
2023/10/21 15:44:34;;;;;;;10.45;5.50;;;;;;;21.38;59.35;99596.38;2120815;27;20821;-65
2023/10/21 15:45:36;;;;;;;10.88;5.80;;;;;;;21.39;59.44;99595.22;2121602;27;20028;-64
2023/10/21 15:46:38;;;;;;;9.70;5.55;;;;;;;21.42;59.42;99599.94;2122017;27;20144;-65
2023/10/21 15:47:41;;;;;;;9.93;5.47;;;;;;;21.43;59.40;99604.22;2104916;28;20125;-64
2023/10/21 15:48:43;;;;;;;8.88;5.65;;;;;;;21.46;59.27;99611.69;2086770;27;20163;-65
2023/10/21 15:49:45;;;;;;;8.55;5.43;;;;;;;21.49;59.34;99612.88;2122082;27;20023;-65
2023/10/21 15:50:47;;;;;;;7.80;5.40;;;;;;;21.50;59.25;99618.00;2114151;27;20024;-65
2023/10/21 15:51:48;;;;;;;9.07;5.30;;;;;;;21.53;59.32;99610.97;2113714;27;20024;-65
2023/10/21 15:52:50;;;;;;;8.98;5.40;;;;;;;21.56;59.22;99625.84;2114998;27;20149;-64
2023/10/21 15:54:01;;;;;;;10.07;5.75;;;;;;;21.58;59.32;99626.28;2120430;27;21355;-65
2023/10/21 15:55:05;;;;;;;11.45;5.38;;;;;;;21.60;59.26;99621.22;2106399;28;20067;-65
2023/10/21 15:56:09;;;;;;;8.80;5.47;;;;;;;21.62;59.32;99613.41;2098082;28;20556;-65
2023/10/21 15:57:13;;;;;;;9.02;5.25;;;;;;;21.64;59.08;99613.81;2090317;28;20037;-65
2023/10/21 15:58:18;;;;;;;9.10;5.32;;;;;;;21.66;59.12;99620.50;2093170;27;20792;-65
2023/10/21 15:59:19;;;;;;;7.60;4.63;;;;;;;21.67;59.08;99615.81;2113287;27;20024;-64
2023/10/21 16:00:22;;;;;;;9.32;5.18;;;;;;;21.68;59.23;99607.22;2117419;27;20019;-66
2023/10/21 16:01:23;;;;;;;9.10;5.38;;;;;;;21.70;59.01;99615.06;2122498;27;20019;-66
2023/10/21 16:02:27;;;;;;;9.43;5.90;;;;;;;21.72;59.11;99607.25;2106403;28;20898;-66
2023/10/21 16:03:29;;;;;;;11.82;5.68;;;;;;;21.72;58.91;99609.97;2106891;28;21245;-66
2023/10/21 16:04:31;;;;;;;8.27;4.90;;;;;;;21.74;59.03;99611.19;2110635;27;20126;-66
2023/10/21 16:05:34;;;;;;;8.80;5.05;;;;;;;21.76;58.93;99619.03;2115078;27;20032;-65
2023/10/21 16:06:36;;;;;;;10.20;5.28;;;;;;;21.79;58.90;99615.53;2114704;28;20028;-67
2023/10/21 16:07:39;;;;;;;12.05;5.70;;;;;;;21.80;58.88;99619.84;2115160;27;20040;-66
2023/10/21 16:08:43;;;;;;;7.95;5.20;;;;;;;21.80;58.89;99625.31;2112492;28;20027;-67
2023/10/21 16:09:45;;;;;;;10.15;5.57;;;;;;;21.82;58.84;99631.19;2090626;28;20037;-66
2023/10/21 16:10:46;;;;;;;13.15;6.13;;;;;;;21.82;58.91;99623.00;2090110;28;20119;-66
2023/10/21 16:11:51;;;;;;;11.02;5.78;;;;;;;21.85;58.77;99629.66;2098806;28;20029;-67
2023/10/21 16:12:52;;;;;;;14.00;5.63;;;;;;;21.83;58.94;99618.31;2105644;28;20977;-67
2023/10/21 16:13:58;;;;;;;11.02;5.95;;;;;;;21.87;58.79;99613.63;2098257;28;20037;-66
2023/10/21 16:15:09;;;;;;;10.95;6.20;;;;;;;21.87;58.84;99617.16;2109272;27;20032;-67
2023/10/21 16:16:13;;;;;;;9.88;6.00;;;;;;;21.89;58.85;99616.78;2123264;27;20801;-68
2023/10/21 16:17:15;;;;;;;8.80;5.90;;;;;;;21.90;58.94;99624.63;2122882;27;20031;-66
2023/10/21 16:18:20;;;;;;;10.25;5.97;;;;;;;21.91;59.19;99622.66;2122196;27;20150;-69
2023/10/21 16:19:22;;;;;;;13.70;6.78;;;;;;;21.91;59.27;99623.47;2115036;27;20067;-67
2023/10/21 16:20:24;;;;;;;10.68;7.28;;;;;;;21.93;59.48;99626.59;2114660;28;20031;-68
2023/10/21 16:21:26;;;;;;;14.63;6.82;;;;;;;21.50;52.61;99620.72;2104836;27;20037;-65
2023/10/21 16:22:30;;;;;;;11.23;7.22;;;;;;;21.50;55.44;99617.19;2113706;27;20028;-67
2023/10/21 16:23:32;;;;;;;10.65;7.05;;;;;;;21.57;57.38;99605.56;2105844;28;20020;-67
2023/10/21 16:24:33;;;;;;;11.80;6.75;;;;;;;21.59;58.46;99614.94;2098681;28;20048;-67
2023/10/21 16:25:37;;;;;;;13.13;7.43;;;;;;;21.62;58.87;99607.94;2107315;27;20102;-67